Terminal Aerodrome Forecast
Issued by NWS Denver/Boulder, CO

Home | Current Version | Previous Version | Text Only | Print | Product List | Glossary Off
Versions: 1 2 3 4 5 6 7 8 9 10 11 12 13 14 15 16 17 18 19 20 21 22 23 24 25 26 27 28 29 30 31 32 33 34 35 36 37 38 39 40 41 42 43 44 45 46 47 48 49 50

000
FTUS45 KBOU 281732
TAFDEN
TAF
KDEN 281732Z 2818/2924 34015KT P6SM BKN007 OVC010
     FM282000 02010KT 5SM -SHRA BKN010 OVC030
      TEMPO 2821/2901 03013KT 3SM -RA BR OVC005
     FM290100 03014KT 3SM -RA BR BKN005 OVC015
      TEMPO 2901/2905 06013G22KT 1SM -RA BR OVC005
     FM290500 06012KT 2SM -RA BR OVC005
     FM290700 02011KT 3SM -RASN BR BKN005 OVC010
     FM291300 36012KT 3SM -RA BR SCT005 BKN010
     FM291800 01015KT 5SM -RA BR SCT010 BKN020
     FM292000 01015KT P6SM SCT015 BKN035=

USA.gov is the U.S. government's official web portal to all federal, state and local government web resources and services.